Time,TemperatureF,DewpointF,PressureIn,WindDirection,WindDirectionDegrees,WindSpeedMPH,WindSpeedGustMPH,Humidity,HourlyPrecipIn,Conditions,Clouds,dailyrainin,SoftwareType,DateUTC
2013-09-17 00:00:00,48.4,45.0,30.24,ESE,107,0.0,0.0,88,0.00,,---,0.00,VWS V14.00,2013-09-17 05:00:00,
2013-09-17 00:02:00,48.2,45.1,30.24,ESE,107,0.0,0.0,89,0.00,,---,0.00,VWS V14.00,2013-09-17 05:02:00,
2013-09-17 00:05:00,48.1,45.0,30.24,ESE,107,0.0,0.0,89,0.00,,---,0.00,VWS V14.00,2013-09-17 05:05:00,
2013-09-17 00:07:00,47.9,44.8,30.24,ESE,107,0.0,0.0,89,0.00,,---,0.00,VWS V14.00,2013-09-17 05:07:00,
2013-09-17 00:10:00,47.9,44.8,30.24,ESE,107,0.0,0.0,89,0.00,,---,0.00,VWS V14.00,2013-09-17 05:10:00,
2013-09-17 00:12:00,47.7,44.9,30.24,ESE,107,0.0,0.0,90,0.00,,---,0.00,VWS V14.00,2013-09-17 05:12:00,
2013-09-17 00:15:00,47.7,44.9,30.24,ESE,107,0.0,0.0,90,0.00,,---,0.00,VWS V14.00,2013-09-17 05:15:00,
2013-09-17 00:17:00,47.6,44.8,30.24,ESE,107,0.0,0.0,90,0.00,,---,0.00,VWS V14.00,2013-09-17 05:17:00,
2013-09-17 00:20:00,47.4,44.6,30.24,ESE,107,0.0,0.0,90,0.00,,---,0.00,VWS V14.00,2013-09-17 05:20:00,
2013-09-17 00:22:00,47.0,44.2,30.24,ESE,107,0.0,0.0,90,0.00,,---,0.00,VWS V14.00,2013-09-17 05:22:00,
2013-09-17 00:25:00,46.9,44.1,30.24,ESE,107,0.0,0.0,90,0.00,,---,0.00,VWS V14.00,2013-09-17 05:25:00,
2013-09-17 00:27:00,46.7,43.9,30.24,ESE,107,0.0,0.0,90,0.00,,---,0.00,VWS V14.00,2013-09-17 05:27:00,
2013-09-17 00:30:00,46.6,44.1,30.24,ESE,107,0.0,0.0,91,0.00,,---,0.00,VWS V14.00,2013-09-17 05:30:00,
2013-09-17 00:32:00,46.5,44.0,30.24,ESE,107,0.0,0.0,91,0.00,,---,0.00,VWS V14.00,2013-09-17 05:32:00,
2013-09-17 00:35:00,46.4,43.9,30.24,ESE,107,0.0,0.0,91,0.00,,---,0.00,VWS V14.00,2013-09-17 05:35:00,
2013-09-17 00:37:00,46.3,43.8,30.24,ESE,107,0.0,0.0,91,0.00,,---,0.00,VWS V14.00,2013-09-17 05:37:00,
2013-09-17 00:40:00,46.3,43.8,30.24,ESE,107,0.0,0.0,91,0.00,,---,0.00,VWS V14.00,2013-09-17 05:40:00,
2013-09-17 00:43:00,46.1,43.9,30.24,ESE,107,0.0,0.0,92,0.00,,---,0.00,VWS V14.00,2013-09-17 05:43:00,
2013-09-17 00:45:00,46.1,43.6,30.24,ESE,107,0.0,0.0,91,0.00,,---,0.00,VWS V14.00,2013-09-17 05:45:00,
2013-09-17 00:48:00,45.8,43.3,30.24,ESE,107,0.0,0.0,91,0.00,,---,0.00,VWS V14.00,2013-09-17 05:48:00,
2013-09-17 00:50:00,45.7,43.2,30.24,ESE,107,0.0,0.0,91,0.00,,---,0.00,VWS V14.00,2013-09-17 05:50:00,
2013-09-17 00:53:00,45.5,43.3,30.24,ESE,107,0.0,0.0,92,0.00,,---,0.00,VWS V14.00,2013-09-17 05:53:00,
2013-09-17 00:55:00,45.5,43.3,30.24,ESE,107,0.0,0.0,92,0.00,,---,0.00,VWS V14.00,2013-09-17 05:55:00,
2013-09-17 00:58:00,45.4,43.2,30.24,ESE,107,0.0,0.0,92,0.00,,---,0.00,VWS V14.00,2013-09-17 05:58:00,
2013-09-17 01:00:00,45.4,43.2,30.24,ESE,107,0.0,0.0,92,0.00,,---,0.00,VWS V14.00,2013-09-17 06:00:00,
2013-09-17 01:03:00,45.2,43.0,30.24,ESE,107,0.0,0.0,92,0.00,,---,0.00,VWS V14.00,2013-09-17 06:03:00,
2013-09-17 01:05:00,45.2,43.0,30.24,ESE,107,0.0,0.0,92,0.00,,---,0.00,VWS V14.00,2013-09-17 06:05:00,
2013-09-17 01:08:00,45.1,42.9,30.24,ESE,107,0.0,0.0,92,0.00,,---,0.00,VWS V14.00,2013-09-17 06:08:00,
2013-09-17 01:10:00,45.1,43.2,30.24,ESE,107,0.0,0.0,93,0.00,,---,0.00,VWS V14.00,2013-09-17 06:10:00,
2013-09-17 01:13:00,45.0,43.1,30.24,ESE,107,0.0,0.0,93,0.00,,---,0.00,VWS V14.00,2013-09-17 06:13:00,
2013-09-17 01:15:00,44.9,43.0,30.24,ESE,107,0.0,0.0,93,0.00,,---,0.00,VWS V14.00,2013-09-17 06:15:00,
2013-09-17 01:18:00,44.7,42.8,30.24,ESE,107,0.0,0.0,93,0.00,,---,0.00,VWS V14.00,2013-09-17 06:18:00,
2013-09-17 01:20:00,44.7,42.8,30.24,ESE,107,0.0,0.0,93,0.00,,---,0.00,VWS V14.00,2013-09-17 06:20:00,
2013-09-17 01:23:00,44.5,42.6,30.24,ESE,107,0.0,0.0,93,0.00,,---,0.00,VWS V14.00,2013-09-17 06:23:00,
2013-09-17 01:25:00,44.5,42.6,30.24,ESE,107,0.0,0.0,93,0.00,,---,0.00,VWS V14.00,2013-09-17 06:25:00,
2013-09-17 01:28:00,44.2,42.3,30.24,ESE,107,0.0,0.0,93,0.00,,---,0.00,VWS V14.00,2013-09-17 06:28:00,
2013-09-17 01:30:00,44.2,42.3,30.24,ESE,107,0.0,0.0,93,0.00,,---,0.00,VWS V14.00,2013-09-17 06:30:00,
2013-09-17 01:33:00,43.9,42.0,30.24,ESE,107,0.0,0.0,93,0.00,,---,0.00,VWS V14.00,2013-09-17 06:33:00,
2013-09-17 01:35:00,43.8,41.9,30.24,ESE,107,0.0,0.0,93,0.00,,---,0.00,VWS V14.00,2013-09-17 06:35:00,
2013-09-17 01:38:00,43.6,41.7,30.24,ESE,107,0.0,0.0,93,0.00,,---,0.00,VWS V14.00,2013-09-17 06:38:00,
2013-09-17 01:40:00,43.6,41.7,30.24,ESE,107,0.0,0.0,93,0.00,,---,0.00,VWS V14.00,2013-09-17 06:40:00,
2013-09-17 01:43:00,43.5,41.6,30.24,ESE,107,0.0,0.0,93,0.00,,---,0.00,VWS V14.00,2013-09-17 06:43:00,
2013-09-17 01:45:00,43.5,41.6,30.24,ESE,107,0.0,0.0,93,0.00,,---,0.00,VWS V14.00,2013-09-17 06:45:00,
2013-09-17 01:48:00,43.5,41.9,30.24,ESE,107,0.0,0.0,94,0.00,,---,0.00,VWS V14.00,2013-09-17 06:48:00,
2013-09-17 01:50:00,43.5,41.9,30.24,ESE,107,0.0,0.0,94,0.00,,---,0.00,VWS V14.00,2013-09-17 06:50:00,
2013-09-17 01:53:00,43.4,41.8,30.24,ESE,107,0.0,0.0,94,0.00,,---,0.00,VWS V14.00,2013-09-17 06:53:00,
2013-09-17 01:55:00,43.3,41.7,30.24,ESE,107,0.0,0.0,94,0.00,,---,0.00,VWS V14.00,2013-09-17 06:55:00,
2013-09-17 01:58:00,43.2,41.6,30.24,ESE,107,0.0,0.0,94,0.00,,---,0.00,VWS V14.00,2013-09-17 06:58:00,
2013-09-17 02:00:00,43.3,41.7,30.24,ESE,107,0.0,0.0,94,0.00,,---,0.00,VWS V14.00,2013-09-17 07:00:00,
2013-09-17 02:03:00,43.2,41.6,30.24,ESE,107,0.0,0.0,94,0.00,,---,0.00,VWS V14.00,2013-09-17 07:03:00,
2013-09-17 02:05:00,43.2,41.6,30.24,ESE,107,0.0,0.0,94,0.00,,---,0.00,VWS V14.00,2013-09-17 07:05:00,
2013-09-17 02:08:00,43.3,41.7,30.24,ESE,107,0.0,0.0,94,0.00,,---,0.00,VWS V14.00,2013-09-17 07:08:00,
2013-09-17 02:10:00,43.3,41.7,30.24,ESE,107,0.0,0.0,94,0.00,,---,0.00,VWS V14.00,2013-09-17 07:10:00,
2013-09-17 02:13:00,43.3,41.7,30.24,ESE,107,0.0,0.0,94,0.00,,---,0.00,VWS V14.00,2013-09-17 07:13:00,
2013-09-17 02:15:00,43.3,41.7,30.24,ESE,107,0.0,0.0,94,0.00,,---,0.00,VWS V14.00,2013-09-17 07:15:00,
2013-09-17 02:18:00,43.0,41.4,30.24,ESE,107,0.0,0.0,94,0.00,,---,0.00,VWS V14.00,2013-09-17 07:18:00,
2013-09-17 02:20:00,42.9,41.3,30.24,ESE,107,0.0,0.0,94,0.00,,---,0.00,VWS V14.00,2013-09-17 07:20:00,
2013-09-17 02:23:00,42.7,41.1,30.24,ESE,107,0.0,0.0,94,0.00,,---,0.00,VWS V14.00,2013-09-17 07:23:00,
2013-09-17 02:25:00,42.6,41.0,30.24,ESE,107,0.0,0.0,94,0.00,,---,0.00,VWS V14.00,2013-09-17 07:25:00,
2013-09-17 02:28:00,42.5,40.9,30.23,ESE,107,0.0,0.0,94,0.00,,---,0.00,VWS V14.00,2013-09-17 07:28:00,
2013-09-17 02:30:00,42.5,40.9,30.23,ESE,107,0.0,0.0,94,0.00,,---,0.00,VWS V14.00,2013-09-17 07:30:00,
2013-09-17 02:33:00,42.4,40.8,30.23,ESE,107,0.0,0.0,94,0.00,,---,0.00,VWS V14.00,2013-09-17 07:33:00,
2013-09-17 02:35:00,42.4,40.8,30.23,ESE,107,0.0,0.0,94,0.00,,---,0.00,VWS V14.00,2013-09-17 07:35:00,
2013-09-17 02:38:00,42.2,40.6,30.23,ESE,107,0.0,0.0,94,0.00,,---,0.00,VWS V14.00,2013-09-17 07:38:00,
2013-09-17 02:40:00,42.1,40.5,30.23,ESE,107,0.0,0.0,94,0.00,,---,0.00,VWS V14.00,2013-09-17 07:40:00,
2013-09-17 02:43:00,41.9,40.3,30.23,ESE,107,0.0,0.0,94,0.00,,---,0.00,VWS V14.00,2013-09-17 07:43:00,
2013-09-17 02:45:00,41.9,40.3,30.23,ESE,107,0.0,0.0,94,0.00,,---,0.00,VWS V14.00,2013-09-17 07:45:00,
2013-09-17 02:48:00,41.8,40.2,30.23,ESE,107,0.0,0.0,94,0.00,,---,0.00,VWS V14.00,2013-09-17 07:48:00,
2013-09-17 02:50:00,41.8,40.2,30.23,ESE,107,0.0,0.0,94,0.00,,---,0.00,VWS V14.00,2013-09-17 07:50:00,
2013-09-17 02:53:00,41.7,40.1,30.23,ESE,107,0.0,0.0,94,0.00,,---,0.00,VWS V14.00,2013-09-17 07:53:00,
2013-09-17 02:55:00,41.7,40.1,30.23,ESE,107,0.0,0.0,94,0.00,,---,0.00,VWS V14.00,2013-09-17 07:55:00,
2013-09-17 02:58:00,41.7,40.4,30.23,ESE,107,0.0,0.0,95,0.00,,---,0.00,VWS V14.00,2013-09-17 07:58:00,
2013-09-17 03:00:00,41.7,40.4,30.23,ESE,107,0.0,0.0,95,0.00,,---,0.00,VWS V14.00,2013-09-17 08:00:00,
2013-09-17 03:04:00,41.8,40.5,30.22,ESE,107,0.0,0.0,95,0.00,,---,0.00,VWS V14.00,2013-09-17 08:04:00,
2013-09-17 03:05:00,41.8,40.5,30.22,ESE,107,0.0,0.0,95,0.00,,---,0.00,VWS V14.00,2013-09-17 08:05:00,
2013-09-17 03:09:00,41.8,40.5,30.22,ESE,107,0.0,0.0,95,0.00,,---,0.00,VWS V14.00,2013-09-17 08:09:00,
2013-09-17 03:10:00,41.8,40.5,30.22,ESE,107,0.0,0.0,95,0.00,,---,0.00,VWS V14.00,2013-09-17 08:10:00,
2013-09-17 03:14:00,41.6,40.3,30.22,ESE,107,0.0,0.0,95,0.00,,---,0.00,VWS V14.00,2013-09-17 08:14:00,
2013-09-17 03:15:00,41.6,40.3,30.22,ESE,107,0.0,0.0,95,0.00,,---,0.00,VWS V14.00,2013-09-17 08:15:00,
2013-09-17 03:19:00,41.4,40.1,30.23,ESE,107,0.0,0.0,95,0.00,,---,0.00,VWS V14.00,2013-09-17 08:19:00,
2013-09-17 03:20:00,41.4,40.1,30.23,ESE,107,0.0,0.0,95,0.00,,---,0.00,VWS V14.00,2013-09-17 08:20:00,
2013-09-17 03:24:00,41.2,39.9,30.22,ESE,107,0.0,0.0,95,0.00,,---,0.00,VWS V14.00,2013-09-17 08:24:00,
2013-09-17 03:25:00,41.2,39.9,30.22,ESE,107,0.0,0.0,95,0.00,,---,0.00,VWS V14.00,2013-09-17 08:25:00,
2013-09-17 03:29:00,41.3,40.0,30.22,ESE,107,0.0,0.0,95,0.00,,---,0.00,VWS V14.00,2013-09-17 08:29:00,
2013-09-17 03:30:00,41.3,40.0,30.22,ESE,107,0.0,0.0,95,0.00,,---,0.00,VWS V14.00,2013-09-17 08:30:00,
2013-09-17 03:34:00,41.3,40.0,30.22,ESE,107,0.0,0.0,95,0.00,,---,0.00,VWS V14.00,2013-09-17 08:34:00,
2013-09-17 03:35:00,41.3,40.0,30.22,ESE,107,0.0,0.0,95,0.00,,---,0.00,VWS V14.00,2013-09-17 08:35:00,
2013-09-17 03:39:00,41.4,40.1,30.22,ESE,107,0.0,0.0,95,0.00,,---,0.00,VWS V14.00,2013-09-17 08:39:00,
2013-09-17 03:40:00,41.4,40.1,30.22,ESE,107,0.0,0.0,95,0.00,,---,0.00,VWS V14.00,2013-09-17 08:40:00,
2013-09-17 03:44:00,41.4,40.1,30.22,ESE,107,0.0,0.0,95,0.00,,---,0.00,VWS V14.00,2013-09-17 08:44:00,
2013-09-17 03:45:00,41.5,40.2,30.22,ESE,107,0.0,0.0,95,0.00,,---,0.00,VWS V14.00,2013-09-17 08:45:00,
2013-09-17 03:49:00,41.4,40.1,30.22,ESE,107,0.0,0.0,95,0.00,,---,0.00,VWS V14.00,2013-09-17 08:49:00,
2013-09-17 03:50:00,41.4,40.1,30.22,ESE,107,0.0,0.0,95,0.00,,---,0.00,VWS V14.00,2013-09-17 08:50:00,
2013-09-17 03:54:00,41.4,40.1,30.22,ESE,107,0.0,0.0,95,0.00,,---,0.00,VWS V14.00,2013-09-17 08:54:00,
2013-09-17 03:55:00,41.3,40.0,30.22,ESE,107,0.0,0.0,95,0.00,,---,0.00,VWS V14.00,2013-09-17 08:55:00,
2013-09-17 03:59:00,41.2,39.9,30.22,ESE,107,0.0,0.0,95,0.00,,---,0.00,VWS V14.00,2013-09-17 08:59:00,
2013-09-17 04:00:00,41.2,39.9,30.22,ESE,107,0.0,0.0,95,0.00,,---,0.00,VWS V14.00,2013-09-17 09:00:00,
2013-09-17 04:04:00,41.1,39.8,30.22,ESE,107,0.0,0.0,95,0.00,,---,0.00,VWS V14.00,2013-09-17 09:04:00,
2013-09-17 04:05:00,41.1,39.8,30.22,ESE,107,0.0,0.0,95,0.00,,---,0.00,VWS V14.00,2013-09-17 09:05:00,
2013-09-17 04:09:00,41.0,39.7,30.22,ESE,107,0.0,0.0,95,0.00,,---,0.00,VWS V14.00,2013-09-17 09:09:00,
2013-09-17 04:10:00,41.0,39.7,30.22,ESE,107,0.0,0.0,95,0.00,,---,0.00,VWS V14.00,2013-09-17 09:10:00,
2013-09-17 04:14:00,40.9,39.6,30.22,ESE,107,0.0,0.0,95,0.00,,---,0.00,VWS V14.00,2013-09-17 09:14:00,
2013-09-17 04:15:00,40.9,39.6,30.22,ESE,107,0.0,0.0,95,0.00,,---,0.00,VWS V14.00,2013-09-17 09:15:00,
2013-09-17 04:19:00,40.7,39.4,30.22,ESE,107,0.0,0.0,95,0.00,,---,0.00,VWS V14.00,2013-09-17 09:19:00,
2013-09-17 04:20:00,40.7,39.4,30.22,ESE,107,0.0,0.0,95,0.00,,---,0.00,VWS V14.00,2013-09-17 09:20:00,
2013-09-17 04:24:00,40.5,39.2,30.22,ESE,107,0.0,0.0,95,0.00,,---,0.00,VWS V14.00,2013-09-17 09:24:00,
2013-09-17 04:25:00,40.5,39.2,30.22,ESE,107,0.0,0.0,95,0.00,,---,0.00,VWS V14.00,2013-09-17 09:25:00,
2013-09-17 04:29:00,40.4,39.1,30.22,ESE,107,0.0,0.0,95,0.00,,---,0.00,VWS V14.00,2013-09-17 09:29:00,
2013-09-17 04:30:00,40.4,39.1,30.22,ESE,107,0.0,0.0,95,0.00,,---,0.00,VWS V14.00,2013-09-17 09:30:00,
2013-09-17 04:34:00,40.3,39.0,30.22,ESE,107,0.0,0.0,95,0.00,,---,0.00,VWS V14.00,2013-09-17 09:34:00,
2013-09-17 04:35:00,40.3,39.0,30.22,ESE,107,0.0,0.0,95,0.00,,---,0.00,VWS V14.00,2013-09-17 09:35:00,
2013-09-17 04:39:00,40.2,38.9,30.22,ESE,107,0.0,0.0,95,0.00,,---,0.00,VWS V14.00,2013-09-17 09:39:00,
2013-09-17 04:40:00,40.2,38.9,30.22,ESE,107,0.0,0.0,95,0.00,,---,0.00,VWS V14.00,2013-09-17 09:40:00,
2013-09-17 04:44:00,40.3,39.0,30.22,ESE,107,0.0,0.0,95,0.00,,---,0.00,VWS V14.00,2013-09-17 09:44:00,
2013-09-17 04:45:00,40.3,39.0,30.22,ESE,107,0.0,0.0,95,0.00,,---,0.00,VWS V14.00,2013-09-17 09:45:00,
2013-09-17 04:49:00,40.4,39.1,30.22,ESE,107,0.0,0.0,95,0.00,,---,0.00,VWS V14.00,2013-09-17 09:49:00,
2013-09-17 04:50:00,40.4,39.1,30.22,ESE,107,0.0,0.0,95,0.00,,---,0.00,VWS V14.00,2013-09-17 09:50:00,
2013-09-17 04:54:00,40.5,39.5,30.22,ESE,107,0.0,0.0,96,0.00,,---,0.00,VWS V14.00,2013-09-17 09:54:00,
2013-09-17 04:55:00,40.5,39.5,30.22,ESE,107,0.0,0.0,96,0.00,,---,0.00,VWS V14.00,2013-09-17 09:55:00,
2013-09-17 04:59:00,40.8,39.8,30.22,ESE,107,0.0,0.0,96,0.00,,---,0.00,VWS V14.00,2013-09-17 09:59:00,
2013-09-17 05:00:00,40.8,39.8,30.22,ESE,107,0.0,0.0,96,0.00,,---,0.00,VWS V14.00,2013-09-17 10:00:00,
2013-09-17 05:04:00,40.9,39.8,30.22,ESE,107,0.0,0.0,96,0.00,,---,0.00,VWS V14.00,2013-09-17 10:04:00,
2013-09-17 05:05:00,40.9,39.8,30.22,ESE,107,0.0,0.0,96,0.00,,---,0.00,VWS V14.00,2013-09-17 10:05:00,
2013-09-17 05:09:00,41.1,40.0,30.22,ESE,107,0.0,0.0,96,0.00,,---,0.00,VWS V14.00,2013-09-17 10:09:00,
2013-09-17 05:10:00,41.1,40.0,30.22,ESE,107,0.0,0.0,96,0.00,,---,0.00,VWS V14.00,2013-09-17 10:10:00,
2013-09-17 05:14:00,41.1,40.0,30.22,ESE,107,0.0,0.0,96,0.00,,---,0.00,VWS V14.00,2013-09-17 10:14:00,
2013-09-17 05:15:00,41.1,40.0,30.22,ESE,107,0.0,0.0,96,0.00,,---,0.00,VWS V14.00,2013-09-17 10:15:00,
2013-09-17 05:19:00,41.1,40.0,30.21,ESE,107,0.0,0.0,96,0.00,,---,0.00,VWS V14.00,2013-09-17 10:19:00,
2013-09-17 05:20:00,41.1,40.0,30.21,ESE,107,0.0,0.0,96,0.00,,---,0.00,VWS V14.00,2013-09-17 10:20:00,
2013-09-17 05:24:00,41.1,40.0,30.21,ESE,107,0.0,0.0,96,0.00,,---,0.00,VWS V14.00,2013-09-17 10:24:00,
2013-09-17 05:25:00,41.1,40.0,30.21,ESE,107,0.0,0.0,96,0.00,,---,0.00,VWS V14.00,2013-09-17 10:25:00,
2013-09-17 05:29:00,41.2,40.2,30.21,ESE,107,0.0,0.0,96,0.00,,---,0.00,VWS V14.00,2013-09-17 10:29:00,
2013-09-17 05:30:00,41.2,40.2,30.21,ESE,107,0.0,0.0,96,0.00,,---,0.00,VWS V14.00,2013-09-17 10:30:00,
2013-09-17 05:34:00,41.1,40.0,30.21,ESE,107,0.0,0.0,96,0.00,,---,0.00,VWS V14.00,2013-09-17 10:34:00,
2013-09-17 05:35:00,41.1,40.0,30.21,ESE,107,0.0,0.0,96,0.00,,---,0.00,VWS V14.00,2013-09-17 10:35:00,
2013-09-17 05:39:00,41.1,40.0,30.21,ESE,107,0.0,0.0,96,0.00,,---,0.00,VWS V14.00,2013-09-17 10:39:00,
2013-09-17 05:40:00,41.1,40.0,30.21,ESE,107,0.0,0.0,96,0.00,,---,0.00,VWS V14.00,2013-09-17 10:40:00,
2013-09-17 05:44:00,41.0,40.0,30.21,ESE,107,0.0,0.0,96,0.00,,---,0.00,VWS V14.00,2013-09-17 10:44:00,
2013-09-17 05:45:00,41.0,40.0,30.21,ESE,107,0.0,0.0,96,0.00,,---,0.00,VWS V14.00,2013-09-17 10:45:00,
2013-09-17 05:49:00,41.0,40.0,30.21,ESE,107,0.0,0.0,96,0.00,,---,0.00,VWS V14.00,2013-09-17 10:49:00,
2013-09-17 05:50:00,41.0,40.0,30.21,ESE,107,0.0,0.0,96,0.00,,---,0.00,VWS V14.00,2013-09-17 10:50:00,
2013-09-17 05:54:00,40.9,39.8,30.21,ESE,107,0.0,0.0,96,0.00,,---,0.00,VWS V14.00,2013-09-17 10:54:00,
2013-09-17 05:55:00,40.9,39.8,30.21,ESE,107,0.0,0.0,96,0.00,,---,0.00,VWS V14.00,2013-09-17 10:55:00,
2013-09-17 05:59:00,41.0,40.0,30.21,ESE,107,0.0,0.0,96,0.00,,---,0.00,VWS V14.00,2013-09-17 10:59:00,
2013-09-17 06:00:00,41.0,40.0,30.21,ESE,107,0.0,0.0,96,0.00,,---,0.00,VWS V14.00,2013-09-17 11:00:00,
2013-09-17 06:04:00,41.1,40.0,30.21,ESE,107,0.0,0.0,96,0.00,,---,0.00,VWS V14.00,2013-09-17 11:04:00,
2013-09-17 06:05:00,41.1,40.0,30.21,ESE,107,0.0,0.0,96,0.00,,---,0.00,VWS V14.00,2013-09-17 11:05:00,
2013-09-17 06:09:00,41.2,40.2,30.21,ESE,107,0.0,0.0,96,0.00,,---,0.00,VWS V14.00,2013-09-17 11:09:00,
2013-09-17 06:10:00,41.2,40.2,30.21,ESE,107,0.0,0.0,96,0.00,,---,0.00,VWS V14.00,2013-09-17 11:10:00,
2013-09-17 06:14:00,41.2,40.2,30.21,ESE,107,0.0,0.0,96,0.00,,---,0.00,VWS V14.00,2013-09-17 11:14:00,
2013-09-17 06:15:00,41.2,40.2,30.21,ESE,107,0.0,0.0,96,0.00,,---,0.00,VWS V14.00,2013-09-17 11:15:00,
2013-09-17 06:19:00,41.1,40.0,30.21,ESE,107,0.0,0.0,96,0.00,,---,0.00,VWS V14.00,2013-09-17 11:19:00,
2013-09-17 06:20:00,41.1,40.0,30.21,ESE,107,0.0,0.0,96,0.00,,---,0.00,VWS V14.00,2013-09-17 11:20:00,
2013-09-17 06:24:00,41.1,40.0,30.21,ESE,107,0.0,0.0,96,0.00,,---,0.00,VWS V14.00,2013-09-17 11:24:00,
2013-09-17 06:25:00,41.1,40.0,30.21,ESE,107,0.0,0.0,96,0.00,,---,0.00,VWS V14.00,2013-09-17 11:25:00,
2013-09-17 06:29:00,41.1,40.0,30.21,ESE,107,0.0,0.0,96,0.00,,---,0.00,VWS V14.00,2013-09-17 11:29:00,
2013-09-17 06:30:00,41.1,40.0,30.21,ESE,107,0.0,0.0,96,0.00,,---,0.00,VWS V14.00,2013-09-17 11:30:00,
2013-09-17 06:34:00,41.0,40.0,30.20,ESE,107,0.0,0.0,96,0.00,,---,0.00,VWS V14.00,2013-09-17 11:34:00,
2013-09-17 06:35:00,41.0,40.0,30.20,ESE,107,0.0,0.0,96,0.00,,---,0.00,VWS V14.00,2013-09-17 11:35:00,
2013-09-17 06:39:00,41.0,40.0,30.21,ESE,107,0.0,0.0,96,0.00,,---,0.00,VWS V14.00,2013-09-17 11:39:00,
2013-09-17 06:40:00,41.0,40.0,30.21,ESE,107,0.0,0.0,96,0.00,,---,0.00,VWS V14.00,2013-09-17 11:40:00,
2013-09-17 06:44:00,41.1,40.0,30.21,ESE,107,0.0,0.0,96,0.00,,---,0.00,VWS V14.00,2013-09-17 11:44:00,
2013-09-17 06:45:00,41.1,40.0,30.21,ESE,107,0.0,0.0,96,0.00,,---,0.00,VWS V14.00,2013-09-17 11:45:00,
2013-09-17 06:49:00,41.4,40.3,30.21,ESE,107,0.0,0.0,96,0.00,,---,0.00,VWS V14.00,2013-09-17 11:49:00,
2013-09-17 06:50:00,41.3,40.2,30.21,ESE,107,0.0,0.0,96,0.00,,---,0.00,VWS V14.00,2013-09-17 11:50:00,
2013-09-17 06:54:00,41.4,40.3,30.21,ESE,107,0.0,0.0,96,0.00,,---,0.00,VWS V14.00,2013-09-17 11:54:00,
2013-09-17 06:55:00,41.4,40.3,30.21,ESE,107,0.0,0.0,96,0.00,,---,0.00,VWS V14.00,2013-09-17 11:55:00,
2013-09-17 06:59:00,41.6,40.5,30.21,ESE,107,0.0,0.0,96,0.00,,---,0.00,VWS V14.00,2013-09-17 11:59:00,
2013-09-17 07:00:00,41.5,40.5,30.21,ESE,107,0.0,0.0,96,0.00,,---,0.00,VWS V14.00,2013-09-17 12:00:00,
2013-09-17 07:04:00,41.9,40.8,30.21,ESE,107,0.0,0.0,96,0.00,,---,0.00,VWS V14.00,2013-09-17 12:04:00,
2013-09-17 07:05:00,41.9,40.8,30.21,ESE,107,0.0,0.0,96,0.00,,---,0.00,VWS V14.00,2013-09-17 12:05:00,
2013-09-17 07:09:00,42.5,41.4,30.21,ESE,107,0.0,0.0,96,0.00,,---,0.00,VWS V14.00,2013-09-17 12:09:00,
2013-09-17 07:10:00,42.4,41.6,30.21,ESE,107,0.0,0.0,97,0.00,,---,0.00,VWS V14.00,2013-09-17 12:10:00,
2013-09-17 07:15:00,43.1,42.3,30.22,ESE,107,0.0,0.0,97,0.00,,---,0.00,VWS V14.00,2013-09-17 12:15:00,
2013-09-17 07:20:00,43.5,42.7,30.22,ESE,107,0.0,0.0,97,0.00,,---,0.00,VWS V14.00,2013-09-17 12:20:00,
2013-09-17 07:25:00,44.0,43.2,30.22,ESE,107,0.0,0.0,97,0.00,,---,0.00,VWS V14.00,2013-09-17 12:25:00,
2013-09-17 07:30:00,44.3,43.5,30.22,ESE,107,0.0,0.0,97,0.00,,---,0.00,VWS V14.00,2013-09-17 12:30:00,
2013-09-17 07:35:00,45.0,44.2,30.21,ESE,107,0.0,0.0,97,0.00,,---,0.00,VWS V14.00,2013-09-17 12:35:00,
2013-09-17 07:40:00,45.6,44.8,30.21,ESE,107,0.0,0.0,97,0.00,,---,0.00,VWS V14.00,2013-09-17 12:40:00,
2013-09-17 07:45:00,46.1,45.3,30.21,ESE,107,0.0,0.0,97,0.00,,---,0.00,VWS V14.00,2013-09-17 12:45:00,
2013-09-17 07:50:00,46.6,45.8,30.21,ESE,107,0.0,0.0,97,0.00,,---,0.00,VWS V14.00,2013-09-17 12:50:00,
2013-09-17 07:55:00,47.1,46.3,30.21,ESE,107,0.0,0.0,97,0.00,,---,0.00,VWS V14.00,2013-09-17 12:55:00,
2013-09-17 08:00:00,47.6,46.8,30.21,ESE,107,0.0,0.0,97,0.00,,---,0.00,VWS V14.00,2013-09-17 13:00:00,
2013-09-17 08:05:00,48.1,47.3,30.21,ESE,107,0.0,0.0,97,0.00,,---,0.00,VWS V14.00,2013-09-17 13:05:00,
2013-09-17 08:10:00,48.3,47.5,30.21,ESE,107,0.0,0.0,97,0.00,,---,0.00,VWS V14.00,2013-09-17 13:10:00,
2013-09-17 08:15:00,48.6,47.8,30.21,ESE,107,0.0,0.0,97,0.00,,---,0.00,VWS V14.00,2013-09-17 13:15:00,
2013-09-17 08:20:00,49.0,48.2,30.21,ESE,107,0.0,0.0,97,0.00,,---,0.00,VWS V14.00,2013-09-17 13:20:00,
2013-09-17 08:25:00,49.4,48.6,30.21,ESE,107,0.0,0.0,97,0.00,,---,0.00,VWS V14.00,2013-09-17 13:25:00,
2013-09-17 08:30:00,49.9,49.1,30.21,ESE,107,0.0,0.0,97,0.00,,---,0.00,VWS V14.00,2013-09-17 13:30:00,
2013-09-17 08:35:00,50.5,49.4,30.21,ESE,107,0.0,0.0,96,0.00,,---,0.00,VWS V14.00,2013-09-17 13:35:00,
2013-09-17 08:40:00,51.0,49.9,30.21,ESE,107,0.0,1.0,96,0.00,,---,0.00,VWS V14.00,2013-09-17 13:40:00,
2013-09-17 08:45:00,51.8,50.4,30.20,ESE,106,0.0,1.0,95,0.00,,---,0.00,VWS V14.00,2013-09-17 13:45:00,
2013-09-17 08:50:00,52.6,50.9,30.20,SE,144,0.0,0.0,94,0.00,,---,0.00,VWS V14.00,2013-09-17 13:50:00,
2013-09-17 08:55:00,53.3,51.3,30.20,SE,125,6.0,6.0,93,0.00,,---,0.00,VWS V14.00,2013-09-17 13:55:00,
2013-09-17 09:00:00,53.5,50.9,30.20,SSE,159,1.0,4.0,91,0.00,,---,0.00,VWS V14.00,2013-09-17 14:00:00,
2013-09-17 09:05:00,54.2,51.3,30.20,SE,130,0.0,4.0,90,0.00,,---,0.00,VWS V14.00,2013-09-17 14:05:00,
2013-09-17 09:10:00,55.1,51.9,30.20,SE,128,1.0,1.0,89,0.00,,---,0.00,VWS V14.00,2013-09-17 14:10:00,
2013-09-17 09:15:00,55.3,51.5,30.20,SE,141,4.0,7.0,87,0.00,,---,0.00,VWS V14.00,2013-09-17 14:15:00,
2013-09-17 09:20:00,55.0,50.9,30.20,SE,137,6.0,6.0,86,0.00,,---,0.00,VWS V14.00,2013-09-17 14:20:00,
2013-09-17 09:25:00,55.4,51.9,30.20,SSE,155,1.0,3.0,88,0.00,,---,0.00,VWS V14.00,2013-09-17 14:25:00,
2013-09-17 09:30:00,56.2,52.4,30.20,SSE,150,5.0,6.0,87,0.00,,---,0.00,VWS V14.00,2013-09-17 14:30:00,
2013-09-17 09:35:00,56.6,52.5,30.20,ESE,105,4.0,5.0,86,0.00,,---,0.00,VWS V14.00,2013-09-17 14:35:00,
2013-09-17 09:40:00,56.9,52.4,30.19,ESE,123,0.0,4.0,85,0.00,,---,0.00,VWS V14.00,2013-09-17 14:40:00,
2013-09-17 09:45:00,57.1,52.6,30.19,SSE,161,6.0,8.0,85,0.00,,---,0.00,VWS V14.00,2013-09-17 14:45:00,
2013-09-17 09:50:00,56.8,52.0,30.19,SE,138,4.0,6.0,84,0.00,,---,0.00,VWS V14.00,2013-09-17 14:50:00,
2013-09-17 09:55:00,57.2,52.7,30.19,SE,129,5.0,5.0,85,0.00,,---,0.00,VWS V14.00,2013-09-17 14:55:00,
2013-09-17 10:00:00,58.1,53.0,30.19,SSE,152,3.0,9.0,83,0.00,,---,0.00,VWS V14.00,2013-09-17 15:00:00,
2013-09-17 10:05:00,59.0,53.8,30.18,SSE,152,5.0,6.0,83,0.00,,---,0.00,VWS V14.00,2013-09-17 15:05:00,
2013-09-17 10:10:00,59.4,53.6,30.18,ESE,116,0.0,5.0,81,0.00,,---,0.00,VWS V14.00,2013-09-17 15:10:00,
2013-09-17 10:15:00,59.5,54.0,30.18,South,171,0.0,5.0,82,0.00,,---,0.00,VWS V14.00,2013-09-17 15:15:00,
2013-09-17 10:20:00,60.3,54.8,30.18,SSE,163,0.0,5.0,82,0.00,,---,0.00,VWS V14.00,2013-09-17 15:20:00,
2013-09-17 10:21:00,60.5,54.3,30.18,SSE,163,1.0,6.0,80,0.00,,---,0.00,VWS V14.00,2013-09-17 15:21:00,
2013-09-17 10:25:00,61.1,54.9,30.18,ESE,114,0.0,6.0,80,0.00,,---,0.00,VWS V14.00,2013-09-17 15:25:00,
2013-09-17 10:26:00,61.3,55.1,30.18,SSE,164,3.0,4.0,80,0.00,,---,0.00,VWS V14.00,2013-09-17 15:26:00,
2013-09-17 10:30:00,61.7,54.8,30.18,SSE,147,5.0,7.0,78,0.00,,---,0.00,VWS V14.00,2013-09-17 15:30:00,
2013-09-17 10:31:00,61.8,54.9,30.18,South,184,2.0,5.0,78,0.00,,---,0.00,VWS V14.00,2013-09-17 15:31:00,
2013-09-17 10:35:00,61.8,54.9,30.18,SSE,152,1.0,9.0,78,0.00,,---,0.00,VWS V14.00,2013-09-17 15:35:00,
2013-09-17 10:36:00,61.9,55.0,30.18,ESE,123,3.0,4.0,78,0.00,,---,0.00,VWS V14.00,2013-09-17 15:36:00,
2013-09-17 10:40:00,62.0,54.7,30.18,South,185,4.0,6.0,77,0.00,,---,0.00,VWS V14.00,2013-09-17 15:40:00,
2013-09-17 10:41:00,62.0,54.7,30.18,SSE,163,4.0,5.0,77,0.00,,---,0.00,VWS V14.00,2013-09-17 15:41:00,
2013-09-17 10:45:00,62.1,54.8,30.18,SSE,150,4.0,10.0,77,0.00,,---,0.00,VWS V14.00,2013-09-17 15:45:00,
2013-09-17 10:46:00,62.1,54.8,30.18,SSE,149,0.0,6.0,77,0.00,,---,0.00,VWS V14.00,2013-09-17 15:46:00,
2013-09-17 10:50:00,62.4,55.1,30.18,SSE,149,1.0,7.0,77,0.00,,---,0.00,VWS V14.00,2013-09-17 15:50:00,
2013-09-17 10:51:00,62.7,55.0,30.17,SE,136,0.0,9.0,76,0.00,,---,0.00,VWS V14.00,2013-09-17 15:51:00,
2013-09-17 10:55:00,62.3,54.3,30.17,SE,127,0.0,9.0,75,0.00,,---,0.00,VWS V14.00,2013-09-17 15:55:00,
2013-09-17 10:56:00,62.0,54.0,30.17,ESE,120,1.0,7.0,75,0.00,,---,0.00,VWS V14.00,2013-09-17 15:56:00,
2013-09-17 11:00:00,61.8,54.2,30.17,South,181,1.0,11.0,76,0.00,,---,0.00,VWS V14.00,2013-09-17 16:00:00,
2013-09-17 11:01:00,61.7,54.1,30.17,SSE,168,0.0,6.0,76,0.00,,---,0.00,VWS V14.00,2013-09-17 16:01:00,
2013-09-17 11:05:00,61.8,54.2,30.17,SE,134,2.0,7.0,76,0.00,,---,0.00,VWS V14.00,2013-09-17 16:05:00,
2013-09-17 11:06:00,61.9,54.3,30.17,SSE,156,4.0,6.0,76,0.00,,---,0.00,VWS V14.00,2013-09-17 16:06:00,
2013-09-17 11:10:00,62.1,54.5,30.17,ESE,109,0.0,6.0,76,0.00,,---,0.00,VWS V14.00,2013-09-17 16:10:00,
2013-09-17 11:11:00,62.0,54.4,30.17,SSE,157,2.0,6.0,76,0.00,,---,0.00,VWS V14.00,2013-09-17 16:11:00,
2013-09-17 11:15:00,62.1,54.8,30.17,SE,139,1.0,7.0,77,0.00,,---,0.00,VWS V14.00,2013-09-17 16:15:00,
2013-09-17 11:16:00,62.4,54.4,30.17,SSE,159,3.0,7.0,75,0.00,,---,0.00,VWS V14.00,2013-09-17 16:16:00,
2013-09-17 11:20:00,62.4,54.4,30.17,SSE,147,6.0,9.0,75,0.00,,---,0.00,VWS V14.00,2013-09-17 16:20:00,
2013-09-17 11:21:00,62.3,54.7,30.17,SE,134,3.0,8.0,76,0.00,,---,0.00,VWS V14.00,2013-09-17 16:21:00,
2013-09-17 11:25:00,62.3,54.3,30.17,SSE,149,2.0,8.0,75,0.00,,---,0.00,VWS V14.00,2013-09-17 16:25:00,
2013-09-17 11:26:00,62.5,54.8,30.17,SE,134,4.0,5.0,76,0.00,,---,0.00,VWS V14.00,2013-09-17 16:26:00,
2013-09-17 11:30:00,62.5,54.1,30.17,ESE,123,4.0,6.0,74,0.00,,---,0.00,VWS V14.00,2013-09-17 16:30:00,
2013-09-17 11:31:00,62.4,54.0,30.16,SE,141,1.0,6.0,74,0.00,,---,0.00,VWS V14.00,2013-09-17 16:31:00,
2013-09-17 11:35:00,62.2,53.8,30.16,SSE,162,9.0,11.0,74,0.00,,---,0.00,VWS V14.00,2013-09-17 16:35:00,
2013-09-17 11:36:00,62.1,53.7,30.16,SSE,156,4.0,12.0,74,0.00,,---,0.00,VWS V14.00,2013-09-17 16:36:00,
2013-09-17 11:40:00,62.3,53.9,30.16,SSE,165,3.0,12.0,74,0.00,,---,0.00,VWS V14.00,2013-09-17 16:40:00,
2013-09-17 11:41:00,62.6,54.6,30.16,SE,128,7.0,7.0,75,0.00,,---,0.00,VWS V14.00,2013-09-17 16:41:00,
2013-09-17 11:45:00,62.5,53.7,30.16,SE,146,4.0,11.0,73,0.00,,---,0.00,VWS V14.00,2013-09-17 16:45:00,
2013-09-17 11:46:00,62.5,53.7,30.16,SE,142,5.0,10.0,73,0.00,,---,0.00,VWS V14.00,2013-09-17 16:46:00,
2013-09-17 11:50:00,62.6,54.2,30.16,South,186,6.0,10.0,74,0.00,,---,0.00,VWS V14.00,2013-09-17 16:50:00,
2013-09-17 11:51:00,62.7,53.9,30.15,SSE,157,4.0,7.0,73,0.00,,---,0.00,VWS V14.00,2013-09-17 16:51:00,
2013-09-17 11:55:00,62.8,54.0,30.15,South,171,3.0,13.0,73,0.00,,---,0.00,VWS V14.00,2013-09-17 16:55:00,
2013-09-17 11:56:00,62.9,54.1,30.15,SSE,165,5.0,6.0,73,0.00,,---,0.00,VWS V14.00,2013-09-17 16:56:00,
2013-09-17 12:00:00,62.9,53.8,30.15,SSE,152,3.0,13.0,72,0.00,,---,0.00,VWS V14.00,2013-09-17 17:00:00,
2013-09-17 12:01:00,62.9,54.1,30.15,South,180,1.0,10.0,73,0.00,,---,0.00,VWS V14.00,2013-09-17 17:01:00,
2013-09-17 12:05:00,63.2,54.0,30.15,SSE,153,8.0,10.0,72,0.00,,---,0.00,VWS V14.00,2013-09-17 17:05:00,
2013-09-17 12:07:00,63.2,53.7,30.15,SSE,163,5.0,11.0,71,0.00,,---,0.00,VWS V14.00,2013-09-17 17:07:00,
2013-09-17 12:10:00,63.2,53.7,30.15,SSE,152,2.0,11.0,71,0.00,,---,0.00,VWS V14.00,2013-09-17 17:10:00,
2013-09-17 12:12:00,63.3,53.8,30.15,SSE,147,5.0,12.0,71,0.00,,---,0.00,VWS V14.00,2013-09-17 17:12:00,
2013-09-17 12:15:00,63.3,54.1,30.14,SSE,157,4.0,12.0,72,0.00,,---,0.00,VWS V14.00,2013-09-17 17:15:00,
2013-09-17 12:17:00,63.5,54.3,30.14,SSE,165,7.0,11.0,72,0.00,,---,0.00,VWS V14.00,2013-09-17 17:17:00,
2013-09-17 12:20:00,63.6,54.0,30.14,South,171,2.0,11.0,71,0.00,,---,0.00,VWS V14.00,2013-09-17 17:20:00,
2013-09-17 12:22:00,63.7,54.1,30.14,SSE,154,1.0,7.0,71,0.00,,---,0.00,VWS V14.00,2013-09-17 17:22:00,
2013-09-17 12:25:00,63.7,54.1,30.14,SSE,153,4.0,11.0,71,0.00,,---,0.00,VWS V14.00,2013-09-17 17:25:00,
2013-09-17 12:27:00,63.6,54.4,30.14,ESE,113,7.0,11.0,72,0.00,,---,0.00,VWS V14.00,2013-09-17 17:27:00,
2013-09-17 12:30:00,63.6,54.0,30.14,SSE,154,6.0,11.0,71,0.00,,---,0.00,VWS V14.00,2013-09-17 17:30:00,
2013-09-17 12:32:00,63.6,54.4,30.14,ESE,115,9.0,11.0,72,0.00,,---,0.00,VWS V14.00,2013-09-17 17:32:00,
2013-09-17 12:35:00,63.9,53.9,30.14,SE,125,2.0,11.0,70,0.00,,---,0.00,VWS V14.00,2013-09-17 17:35:00,
2013-09-17 12:37:00,64.0,54.0,30.13,East,92,5.0,12.0,70,0.00,,---,0.00,VWS V14.00,2013-09-17 17:37:00,
2013-09-17 12:40:00,64.2,54.2,30.14,SE,130,3.0,12.0,70,0.00,,---,0.00,VWS V14.00,2013-09-17 17:40:00,
2013-09-17 12:42:00,64.5,54.1,30.13,ESE,116,4.0,10.0,69,0.00,,---,0.00,VWS V14.00,2013-09-17 17:42:00,
2013-09-17 12:45:00,65.2,55.2,30.13,SSE,153,3.0,11.0,70,0.00,,---,0.00,VWS V14.00,2013-09-17 17:45:00,
2013-09-17 12:47:00,65.4,53.3,30.13,ESE,116,6.0,14.0,65,0.00,,---,0.00,VWS V14.00,2013-09-17 17:47:00,
2013-09-17 12:50:00,65.0,53.8,30.13,ESE,115,6.0,14.0,67,0.00,,---,0.00,VWS V14.00,2013-09-17 17:50:00,
2013-09-17 12:52:00,64.8,53.6,30.13,SE,130,3.0,10.0,67,0.00,,---,0.00,VWS V14.00,2013-09-17 17:52:00,
2013-09-17 12:55:00,65.0,54.2,30.12,SE,138,2.0,10.0,68,0.00,,---,0.00,VWS V14.00,2013-09-17 17:55:00,
2013-09-17 12:57:00,65.2,53.6,30.12,SSE,149,6.0,11.0,66,0.00,,---,0.00,VWS V14.00,2013-09-17 17:57:00,
2013-09-17 13:00:00,65.2,54.0,30.12,SSE,152,3.0,11.0,67,0.00,,---,0.00,VWS V14.00,2013-09-17 18:00:00,
2013-09-17 13:02:00,65.5,55.1,30.12,ESE,111,2.0,8.0,69,0.00,,---,0.00,VWS V14.00,2013-09-17 18:02:00,
2013-09-17 13:05:00,66.1,54.8,30.12,SSE,153,6.0,8.0,67,0.00,,---,0.00,VWS V14.00,2013-09-17 18:05:00,
2013-09-17 13:07:00,66.7,55.0,30.12,ESE,118,2.0,11.0,66,0.00,,---,0.00,VWS V14.00,2013-09-17 18:07:00,
2013-09-17 13:10:00,67.1,54.5,30.12,East,83,7.0,11.0,64,0.00,,---,0.00,VWS V14.00,2013-09-17 18:10:00,
2013-09-17 13:12:00,67.1,54.1,30.12,SSW,199,4.0,12.0,63,0.00,,---,0.00,VWS V14.00,2013-09-17 18:12:00,
2013-09-17 13:15:00,67.3,54.7,30.12,SE,136,9.0,12.0,64,0.00,,---,0.00,VWS V14.00,2013-09-17 18:15:00,
2013-09-17 13:17:00,67.6,55.0,30.11,SE,144,5.0,12.0,64,0.00,,---,0.00,VWS V14.00,2013-09-17 18:17:00,
2013-09-17 13:20:00,67.9,54.8,30.11,ESE,115,6.0,12.0,63,0.00,,---,0.00,VWS V14.00,2013-09-17 18:20:00,
2013-09-17 13:22:00,67.6,54.1,30.11,SE,130,6.0,12.0,62,0.00,,---,0.00,VWS V14.00,2013-09-17 18:22:00,
2013-09-17 13:25:00,67.2,53.8,30.11,SE,144,4.0,12.0,62,0.00,,---,0.00,VWS V14.00,2013-09-17 18:25:00,
2013-09-17 13:27:00,66.8,53.8,30.11,ESE,120,11.0,11.0,63,0.00,,---,0.00,VWS V14.00,2013-09-17 18:27:00,
2013-09-17 13:30:00,66.6,54.1,30.11,SE,146,5.0,11.0,64,0.00,,---,0.00,VWS V14.00,2013-09-17 18:30:00,
2013-09-17 13:32:00,66.6,54.1,30.11,SE,138,3.0,10.0,64,0.00,,---,0.00,VWS V14.00,2013-09-17 18:32:00,
2013-09-17 13:35:00,66.8,55.1,30.11,SSE,152,6.0,10.0,66,0.00,,---,0.00,VWS V14.00,2013-09-17 18:35:00,
2013-09-17 13:37:00,66.8,53.8,30.10,SSW,192,3.0,12.0,63,0.00,,---,0.00,VWS V14.00,2013-09-17 18:37:00,
2013-09-17 13:40:00,66.6,54.1,30.10,SE,129,5.0,12.0,64,0.00,,---,0.00,VWS V14.00,2013-09-17 18:40:00,
2013-09-17 13:42:00,66.7,54.6,30.10,ESE,109,1.0,7.0,65,0.00,,---,0.00,VWS V14.00,2013-09-17 18:42:00,
2013-09-17 13:45:00,66.9,54.8,30.10,South,184,9.0,9.0,65,0.00,,---,0.00,VWS V14.00,2013-09-17 18:45:00,
2013-09-17 13:47:00,67.0,54.4,30.10,SE,145,6.0,12.0,64,0.00,,---,0.00,VWS V14.00,2013-09-17 18:47:00,
2013-09-17 13:50:00,67.0,54.9,30.10,SE,137,10.0,12.0,65,0.00,,---,0.00,VWS V14.00,2013-09-17 18:50:00,
2013-09-17 13:52:00,67.3,54.7,30.10,East,101,5.0,10.0,64,0.00,,---,0.00,VWS V14.00,2013-09-17 18:52:00,
2013-09-17 13:55:00,67.5,55.3,30.10,SSE,152,5.0,10.0,65,0.00,,---,0.00,VWS V14.00,2013-09-17 18:55:00,
2013-09-17 13:57:00,68.1,54.6,30.09,South,171,7.0,11.0,62,0.00,,---,0.00,VWS V14.00,2013-09-17 18:57:00,
2013-09-17 14:00:00,68.2,55.1,30.09,SE,146,5.0,11.0,63,0.00,,---,0.00,VWS V14.00,2013-09-17 19:00:00,
2013-09-17 14:02:00,68.3,54.8,30.09,SSW,197,8.0,11.0,62,0.00,,---,0.00,VWS V14.00,2013-09-17 19:02:00,
2013-09-17 14:05:00,68.2,55.1,30.09,SSE,155,10.0,11.0,63,0.00,,---,0.00,VWS V14.00,2013-09-17 19:05:00,
2013-09-17 14:07:00,68.0,55.0,30.09,SW,219,3.0,14.0,63,0.00,,---,0.00,VWS V14.00,2013-09-17 19:07:00,
2013-09-17 14:10:00,68.1,55.0,30.09,South,175,5.0,14.0,63,0.00,,---,0.00,VWS V14.00,2013-09-17 19:10:00,
2013-09-17 14:12:00,68.4,55.3,30.09,SSE,150,4.0,10.0,63,0.00,,---,0.00,VWS V14.00,2013-09-17 19:12:00,
2013-09-17 14:15:00,68.4,54.9,30.09,South,176,6.0,10.0,62,0.00,,---,0.00,VWS V14.00,2013-09-17 19:15:00,
2013-09-17 14:17:00,68.6,55.5,30.09,SE,135,13.0,13.0,63,0.00,,---,0.00,VWS V14.00,2013-09-17 19:17:00,
2013-09-17 14:20:00,68.5,55.0,30.09,SE,132,6.0,13.0,62,0.00,,---,0.00,VWS V14.00,2013-09-17 19:20:00,
2013-09-17 14:22:00,68.1,55.0,30.09,SE,134,12.0,12.0,63,0.00,,---,0.00,VWS V14.00,2013-09-17 19:22:00,
2013-09-17 14:25:00,67.9,54.8,30.09,SSE,155,2.0,12.0,63,0.00,,---,0.00,VWS V14.00,2013-09-17 19:25:00,
2013-09-17 14:27:00,67.6,54.1,30.09,SSE,147,5.0,15.0,62,0.00,,---,0.00,VWS V14.00,2013-09-17 19:27:00,
2013-09-17 14:30:00,67.5,54.0,30.08,SSE,165,10.0,15.0,62,0.00,,---,0.00,VWS V14.00,2013-09-17 19:30:00,
2013-09-17 14:32:00,67.5,54.9,30.08,SSE,154,10.0,11.0,64,0.00,,---,0.00,VWS V14.00,2013-09-17 19:32:00,
2013-09-17 14:35:00,67.5,54.5,30.08,SSE,159,6.0,12.0,63,0.00,,---,0.00,VWS V14.00,2013-09-17 19:35:00,
2013-09-17 14:37:00,67.5,54.0,30.08,SSE,149,5.0,14.0,62,0.00,,---,0.00,VWS V14.00,2013-09-17 19:37:00,
2013-09-17 14:40:00,67.4,53.9,30.08,SSE,159,9.0,14.0,62,0.00,,---,0.00,VWS V14.00,2013-09-17 19:40:00,
2013-09-17 14:42:00,67.1,53.7,30.08,SSW,212,2.0,11.0,62,0.00,,---,0.00,VWS V14.00,2013-09-17 19:42:00,
2013-09-17 14:45:00,67.0,54.0,30.08,South,173,1.0,11.0,63,0.00,,---,0.00,VWS V14.00,2013-09-17 19:45:00,
2013-09-17 14:48:00,67.0,54.4,30.08,SSE,150,11.0,11.0,64,0.00,,---,0.00,VWS V14.00,2013-09-17 19:48:00,
2013-09-17 14:50:00,66.9,54.3,30.08,SSE,152,3.0,11.0,64,0.00,,---,0.00,VWS V14.00,2013-09-17 19:50:00,
2013-09-17 14:53:00,66.5,54.4,30.08,ESE,117,1.0,15.0,65,0.00,,---,0.00,VWS V14.00,2013-09-17 19:53:00,
2013-09-17 14:55:00,66.5,54.8,30.08,SSE,148,2.0,15.0,66,0.00,,---,0.00,VWS V14.00,2013-09-17 19:55:00,
2013-09-17 14:58:00,66.8,55.1,30.08,SE,146,0.0,5.0,66,0.00,,---,0.00,VWS V14.00,2013-09-17 19:58:00,
2013-09-17 15:00:00,67.0,55.3,30.07,ESE,111,6.0,6.0,66,0.00,,---,0.00,VWS V14.00,2013-09-17 20:00:00,
2013-09-17 15:03:00,67.2,55.0,30.07,SE,125,0.0,11.0,65,0.00,,---,0.00,VWS V14.00,2013-09-17 20:03:00,
2013-09-17 15:05:00,67.4,54.8,30.07,ESE,111,0.0,11.0,64,0.00,,---,0.00,VWS V14.00,2013-09-17 20:05:00,
2013-09-17 15:08:00,67.7,55.1,30.07,SE,134,5.0,10.0,64,0.00,,---,0.00,VWS V14.00,2013-09-17 20:08:00,
2013-09-17 15:10:00,67.9,55.3,30.07,ESE,122,0.0,10.0,64,0.00,,---,0.00,VWS V14.00,2013-09-17 20:10:00,
2013-09-17 15:13:00,68.3,55.7,30.07,SE,131,3.0,10.0,64,0.00,,---,0.00,VWS V14.00,2013-09-17 20:13:00,
2013-09-17 15:15:00,68.3,55.2,30.07,SE,140,9.0,12.0,63,0.00,,---,0.00,VWS V14.00,2013-09-17 20:15:00,
2013-09-17 15:18:00,67.8,53.9,30.07,SE,130,10.0,12.0,61,0.00,,---,0.00,VWS V14.00,2013-09-17 20:18:00,
2013-09-17 15:20:00,67.7,54.7,30.07,SE,131,7.0,12.0,63,0.00,,---,0.00,VWS V14.00,2013-09-17 20:20:00,
2013-09-17 15:23:00,67.4,54.8,30.06,SSE,164,2.0,11.0,64,0.00,,---,0.00,VWS V14.00,2013-09-17 20:23:00,
2013-09-17 15:25:00,67.3,54.7,30.06,SSE,165,6.0,11.0,64,0.00,,---,0.00,VWS V14.00,2013-09-17 20:25:00,
2013-09-17 15:28:00,67.2,54.6,30.06,SE,142,1.0,10.0,64,0.00,,---,0.00,VWS V14.00,2013-09-17 20:28:00,
2013-09-17 15:30:00,67.3,54.7,30.06,SSE,153,6.0,10.0,64,0.00,,---,0.00,VWS V14.00,2013-09-17 20:30:00,
2013-09-17 15:33:00,67.2,54.2,30.06,SE,140,7.0,9.0,63,0.00,,---,0.00,VWS V14.00,2013-09-17 20:33:00,
2013-09-17 15:35:00,67.2,54.2,30.06,SSE,155,4.0,10.0,63,0.00,,---,0.00,VWS V14.00,2013-09-17 20:35:00,
2013-09-17 15:38:00,67.1,54.1,30.06,SSE,157,3.0,11.0,63,0.00,,---,0.00,VWS V14.00,2013-09-17 20:38:00,
2013-09-17 15:40:00,67.1,54.1,30.06,SSE,149,5.0,11.0,63,0.00,,---,0.00,VWS V14.00,2013-09-17 20:40:00,
2013-09-17 15:43:00,66.9,54.8,30.06,SSE,159,3.0,10.0,65,0.00,,---,0.00,VWS V14.00,2013-09-17 20:43:00,
2013-09-17 15:45:00,67.0,54.9,30.06,SSE,167,3.0,10.0,65,0.00,,---,0.00,VWS V14.00,2013-09-17 20:45:00,
2013-09-17 15:48:00,67.0,54.9,30.06,SSE,153,3.0,6.0,65,0.00,,---,0.00,VWS V14.00,2013-09-17 20:48:00,
2013-09-17 15:50:00,67.0,54.9,30.06,SSE,153,3.0,6.0,65,0.00,,---,0.00,VWS V14.00,2013-09-17 20:50:00,
2013-09-17 15:53:00,67.0,54.9,30.06,ESE,118,5.0,9.0,65,0.00,,---,0.00,VWS V14.00,2013-09-17 20:53:00,
2013-09-17 15:55:00,67.0,54.9,30.06,SE,126,5.0,9.0,65,0.00,,---,0.00,VWS V14.00,2013-09-17 20:55:00,
2013-09-17 15:58:00,66.9,54.3,30.05,SSE,163,1.0,9.0,64,0.00,,---,0.00,VWS V14.00,2013-09-17 20:58:00,
2013-09-17 16:00:00,66.8,54.7,30.05,SSE,156,5.0,9.0,65,0.00,,---,0.00,VWS V14.00,2013-09-17 21:00:00,
2013-09-17 16:03:00,66.8,55.5,30.05,SSE,159,7.0,7.0,67,0.00,,---,0.00,VWS V14.00,2013-09-17 21:03:00,
2013-09-17 16:05:00,66.8,54.7,30.05,SSE,165,3.0,7.0,65,0.00,,---,0.00,VWS V14.00,2013-09-17 21:05:00,
2013-09-17 16:08:00,66.5,54.8,30.05,SSE,148,2.0,7.0,66,0.00,,---,0.00,VWS V14.00,2013-09-17 21:08:00,
2013-09-17 16:10:00,66.5,54.8,30.05,SSE,148,0.0,7.0,66,0.00,,---,0.00,VWS V14.00,2013-09-17 21:10:00,
2013-09-17 16:13:00,66.6,55.3,30.05,SSE,160,2.0,6.0,67,0.00,,---,0.00,VWS V14.00,2013-09-17 21:13:00,
2013-09-17 16:15:00,66.6,55.3,30.05,SSE,157,2.0,6.0,67,0.00,,---,0.00,VWS V14.00,2013-09-17 21:15:00,
2013-09-17 16:18:00,66.7,55.0,30.04,ESE,114,2.0,9.0,66,0.00,,---,0.00,VWS V14.00,2013-09-17 21:18:00,
2013-09-17 16:20:00,66.7,55.4,30.04,SSE,163,1.0,9.0,67,0.00,,---,0.00,VWS V14.00,2013-09-17 21:20:00,
2013-09-17 16:23:00,66.8,55.1,30.04,SE,136,8.0,11.0,66,0.00,,---,0.00,VWS V14.00,2013-09-17 21:23:00,
2013-09-17 16:25:00,66.8,55.1,30.04,SSE,151,4.0,11.0,66,0.00,,---,0.00,VWS V14.00,2013-09-17 21:25:00,
2013-09-17 16:28:00,66.7,54.6,30.04,SE,136,6.0,12.0,65,0.00,,---,0.00,VWS V14.00,2013-09-17 21:28:00,
2013-09-17 16:30:00,66.6,54.9,30.04,SSE,155,3.0,12.0,66,0.00,,---,0.00,VWS V14.00,2013-09-17 21:30:00,
2013-09-17 16:33:00,66.5,54.8,30.04,SE,137,3.0,10.0,66,0.00,,---,0.00,VWS V14.00,2013-09-17 21:33:00,
2013-09-17 16:35:00,66.5,54.8,30.04,SE,142,1.0,10.0,66,0.00,,---,0.00,VWS V14.00,2013-09-17 21:35:00,
2013-09-17 16:38:00,66.5,55.2,30.03,SE,146,1.0,9.0,67,0.00,,---,0.00,VWS V14.00,2013-09-17 21:38:00,
2013-09-17 16:40:00,66.5,55.2,30.03,SE,138,2.0,9.0,67,0.00,,---,0.00,VWS V14.00,2013-09-17 21:40:00,
2013-09-17 16:43:00,66.5,55.2,30.03,SE,137,1.0,6.0,67,0.00,,---,0.00,VWS V14.00,2013-09-17 21:43:00,
2013-09-17 16:45:00,66.5,55.2,30.03,SSE,159,1.0,6.0,67,0.00,,---,0.00,VWS V14.00,2013-09-17 21:45:00,
2013-09-17 16:48:00,66.6,55.3,30.03,SSE,156,3.0,6.0,67,0.00,,---,0.00,VWS V14.00,2013-09-17 21:48:00,
2013-09-17 16:50:00,66.7,55.4,30.03,SSE,158,0.0,6.0,67,0.00,,---,0.00,VWS V14.00,2013-09-17 21:50:00,
2013-09-17 16:53:00,66.7,55.0,30.03,SSE,150,1.0,6.0,66,0.00,,---,0.00,VWS V14.00,2013-09-17 21:53:00,
2013-09-17 16:55:00,66.6,54.9,30.03,SSE,147,2.0,6.0,66,0.00,,---,0.00,VWS V14.00,2013-09-17 21:55:00,
2013-09-17 16:59:00,66.6,55.3,30.03,SSE,148,1.0,6.0,67,0.00,,---,0.00,VWS V14.00,2013-09-17 21:59:00,
2013-09-17 17:00:00,66.6,55.3,30.03,SSE,148,2.0,6.0,67,0.00,,---,0.00,VWS V14.00,2013-09-17 22:00:00,
2013-09-17 17:03:00,66.7,55.0,30.03,East,98,0.0,7.0,66,0.00,,---,0.00,VWS V14.00,2013-09-17 22:03:00,
2013-09-17 17:05:00,66.7,55.4,30.03,South,175,4.0,7.0,67,0.00,,---,0.00,VWS V14.00,2013-09-17 22:05:00,
2013-09-17 17:08:00,66.6,55.3,30.03,SSE,150,3.0,6.0,67,0.00,,---,0.00,VWS V14.00,2013-09-17 22:08:00,
2013-09-17 17:10:00,66.6,55.3,30.03,SSE,167,1.0,6.0,67,0.00,,---,0.00,VWS V14.00,2013-09-17 22:10:00,
2013-09-17 17:13:00,66.6,55.3,30.03,SSE,148,5.0,5.0,67,0.00,,---,0.00,VWS V14.00,2013-09-17 22:13:00,
2013-09-17 17:15:00,66.6,55.3,30.03,SSE,164,4.0,5.0,67,0.00,,---,0.00,VWS V14.00,2013-09-17 22:15:00,
2013-09-17 17:18:00,66.6,55.3,30.03,SSE,149,3.0,7.0,67,0.00,,---,0.00,VWS V14.00,2013-09-17 22:18:00,
2013-09-17 17:20:00,66.6,55.3,30.03,SSW,200,2.0,7.0,67,0.00,,---,0.00,VWS V14.00,2013-09-17 22:20:00,
2013-09-17 17:23:00,66.5,55.6,30.03,SSE,152,3.0,11.0,68,0.00,,---,0.00,VWS V14.00,2013-09-17 22:23:00,
2013-09-17 17:25:00,66.5,55.6,30.03,SSE,157,1.0,11.0,68,0.00,,---,0.00,VWS V14.00,2013-09-17 22:25:00,
2013-09-17 17:28:00,66.5,55.6,30.03,South,190,2.0,9.0,68,0.00,,---,0.00,VWS V14.00,2013-09-17 22:28:00,
2013-09-17 17:30:00,66.4,55.1,30.03,SSW,192,2.0,9.0,67,0.00,,---,0.00,VWS V14.00,2013-09-17 22:30:00,
2013-09-17 17:34:00,66.3,55.0,30.03,SSE,153,0.0,6.0,67,0.00,,---,0.00,VWS V14.00,2013-09-17 22:34:00,
2013-09-17 17:35:00,66.3,55.4,30.03,SSE,154,0.0,6.0,68,0.00,,---,0.00,VWS V14.00,2013-09-17 22:35:00,
2013-09-17 17:39:00,66.3,55.4,30.03,SSE,168,0.0,7.0,68,0.00,,---,0.00,VWS V14.00,2013-09-17 22:39:00,
2013-09-17 17:40:00,66.3,55.4,30.03,SE,141,4.0,7.0,68,0.00,,---,0.00,VWS V14.00,2013-09-17 22:40:00,
2013-09-17 17:44:00,66.1,55.2,30.03,SSE,163,0.0,5.0,68,0.00,,---,0.00,VWS V14.00,2013-09-17 22:44:00,
2013-09-17 17:45:00,66.1,55.7,30.03,SSE,163,0.0,5.0,69,0.00,,---,0.00,VWS V14.00,2013-09-17 22:45:00,
2013-09-17 17:49:00,66.0,55.5,30.03,SSE,157,3.0,6.0,69,0.00,,---,0.00,VWS V14.00,2013-09-17 22:49:00,
2013-09-17 17:50:00,66.0,55.5,30.03,SSE,148,0.0,6.0,69,0.00,,---,0.00,VWS V14.00,2013-09-17 22:50:00,
2013-09-17 17:54:00,65.9,55.5,30.02,East,98,0.0,4.0,69,0.00,,---,0.00,VWS V14.00,2013-09-17 22:54:00,
2013-09-17 17:55:00,65.9,55.5,30.02,ESE,104,0.0,4.0,69,0.00,,---,0.00,VWS V14.00,2013-09-17 22:55:00,
2013-09-17 17:59:00,65.8,56.2,30.02,SE,140,0.0,2.0,71,0.00,,---,0.00,VWS V14.00,2013-09-17 22:59:00,
2013-09-17 18:00:00,65.7,56.0,30.02,SE,140,0.0,2.0,71,0.00,,---,0.00,VWS V14.00,2013-09-17 23:00:00,
2013-09-17 18:04:00,65.6,56.0,30.02,SSE,165,0.0,3.0,71,0.00,,---,0.00,VWS V14.00,2013-09-17 23:04:00,
2013-09-17 18:05:00,65.6,56.0,30.02,SSE,165,0.0,3.0,71,0.00,,---,0.00,VWS V14.00,2013-09-17 23:05:00,
2013-09-17 18:09:00,65.5,56.2,30.01,SE,128,0.0,1.0,72,0.00,,---,0.00,VWS V14.00,2013-09-17 23:09:00,
2013-09-17 18:10:00,65.5,56.6,30.01,SE,128,0.0,1.0,73,0.00,,---,0.00,VWS V14.00,2013-09-17 23:10:00,
2013-09-17 18:14:00,65.2,56.7,30.02,SE,130,1.0,3.0,74,0.01,,---,0.01,VWS V14.00,2013-09-17 23:14:00,
2013-09-17 18:15:00,65.1,56.6,30.02,South,171,3.0,3.0,74,0.01,,---,0.01,VWS V14.00,2013-09-17 23:15:00,
2013-09-17 18:18:00,64.8,56.3,30.02,SSE,157,0.0,7.0,74,0.01,,---,0.01,VWS V14.00,2013-09-17 23:18:00,
2013-09-17 18:20:00,64.8,56.7,30.02,SSE,157,0.0,7.0,75,0.01,,---,0.01,VWS V14.00,2013-09-17 23:20:00,
2013-09-17 18:23:00,64.5,56.8,30.02,SSE,157,0.0,6.0,76,0.01,,---,0.01,VWS V14.00,2013-09-17 23:23:00,
2013-09-17 18:25:00,64.5,56.8,30.02,SSE,157,0.0,6.0,76,0.01,,---,0.01,VWS V14.00,2013-09-17 23:25:00,
2013-09-17 18:29:00,64.2,56.8,30.02,SSE,156,0.0,1.0,77,0.01,,---,0.01,VWS V14.00,2013-09-17 23:29:00,
2013-09-17 18:30:00,64.1,56.8,30.02,SSE,157,0.0,1.0,77,0.01,,---,0.01,VWS V14.00,2013-09-17 23:30:00,
2013-09-17 18:34:00,63.9,56.9,30.01,SSE,156,0.0,1.0,78,0.01,,---,0.01,VWS V14.00,2013-09-17 23:34:00,
2013-09-17 18:35:00,63.9,56.9,30.01,SSE,157,0.0,1.0,78,0.01,,---,0.01,VWS V14.00,2013-09-17 23:35:00,
2013-09-17 18:39:00,63.7,57.1,30.01,SSE,156,0.0,1.0,79,0.01,,---,0.01,VWS V14.00,2013-09-17 23:39:00,
2013-09-17 18:40:00,63.7,57.1,30.01,SSE,157,0.0,1.0,79,0.01,,---,0.01,VWS V14.00,2013-09-17 23:40:00,
2013-09-17 18:44:00,63.6,57.0,30.01,SSE,161,2.0,4.0,79,0.01,,---,0.01,VWS V14.00,2013-09-17 23:44:00,
2013-09-17 18:45:00,63.6,57.0,30.01,SSE,161,0.0,4.0,79,0.01,,---,0.01,VWS V14.00,2013-09-17 23:45:00,
2013-09-17 18:49:00,63.4,56.8,30.01,SSE,160,0.0,2.0,79,0.01,,---,0.01,VWS V14.00,2013-09-17 23:49:00,
2013-09-17 18:50:00,63.4,56.8,30.01,SSE,161,0.0,2.0,79,0.01,,---,0.01,VWS V14.00,2013-09-17 23:50:00,
2013-09-17 18:54:00,63.2,56.9,30.01,SSE,161,0.0,2.0,80,0.01,,---,0.01,VWS V14.00,2013-09-17 23:54:00,
2013-09-17 18:55:00,63.2,57.3,30.01,SSE,160,0.0,2.0,81,0.01,,---,0.01,VWS V14.00,2013-09-17 23:55:00,
2013-09-17 18:59:00,63.0,57.1,30.01,SSE,161,0.0,1.0,81,0.01,,---,0.01,VWS V14.00,2013-09-17 23:59:00,
2013-09-17 19:00:00,63.0,57.1,30.01,SSE,161,0.0,1.0,81,0.01,,---,0.01,VWS V14.00,2013-09-18 00:00:00,
2013-09-17 19:04:00,62.9,57.3,30.00,SSE,160,0.0,0.0,82,0.01,,---,0.01,VWS V14.00,2013-09-18 00:04:00,
2013-09-17 19:05:00,62.8,57.2,30.00,SSE,161,0.0,0.0,82,0.01,,---,0.01,VWS V14.00,2013-09-18 00:05:00,
2013-09-17 19:09:00,62.6,57.0,30.00,SSE,160,0.0,1.0,82,0.01,,---,0.01,VWS V14.00,2013-09-18 00:09:00,
2013-09-17 19:10:00,62.6,57.0,30.00,SSE,160,0.0,1.0,82,0.01,,---,0.01,VWS V14.00,2013-09-18 00:10:00,
2013-09-17 19:14:00,62.6,57.4,30.00,SSE,161,0.0,0.0,83,0.01,,---,0.01,VWS V14.00,2013-09-18 00:14:00,
2013-09-17 19:15:00,62.5,57.3,30.00,SSE,160,0.0,0.0,83,0.01,,---,0.01,VWS V14.00,2013-09-18 00:15:00,
2013-09-17 19:19:00,62.5,56.9,30.00,SSE,161,0.0,1.0,82,0.00,,---,0.01,VWS V14.00,2013-09-18 00:19:00,
2013-09-17 19:20:00,62.5,57.3,30.00,SSE,160,0.0,1.0,83,0.00,,---,0.01,VWS V14.00,2013-09-18 00:20:00,
2013-09-17 19:24:00,62.5,56.9,30.00,SSE,160,0.0,1.0,82,0.00,,---,0.01,VWS V14.00,2013-09-18 00:24:00,
2013-09-17 19:25:00,62.5,57.3,30.00,SSE,161,0.0,1.0,83,0.00,,---,0.01,VWS V14.00,2013-09-18 00:25:00,
2013-09-17 19:29:00,62.5,56.9,30.00,SSE,161,0.0,1.0,82,0.00,,---,0.01,VWS V14.00,2013-09-18 00:29:00,
2013-09-17 19:30:00,62.4,56.8,30.00,SSE,160,0.0,1.0,82,0.00,,---,0.01,VWS V14.00,2013-09-18 00:30:00,
2013-09-17 19:34:00,62.4,56.8,30.00,SSE,161,0.0,1.0,82,0.00,,---,0.01,VWS V14.00,2013-09-18 00:34:00,
2013-09-17 19:35:00,62.4,56.8,30.00,SSE,160,0.0,1.0,82,0.00,,---,0.01,VWS V14.00,2013-09-18 00:35:00,
2013-09-17 19:39:00,62.4,56.8,30.00,SSE,161,0.0,0.0,82,0.00,,---,0.01,VWS V14.00,2013-09-18 00:39:00,
2013-09-17 19:40:00,62.4,56.8,30.00,SSE,161,0.0,1.0,82,0.00,,---,0.01,VWS V14.00,2013-09-18 00:40:00,
2013-09-17 19:44:00,62.4,56.8,30.00,SSE,161,0.0,2.0,82,0.00,,---,0.01,VWS V14.00,2013-09-18 00:44:00,
2013-09-17 19:45:00,62.4,56.8,30.00,SSE,161,0.0,2.0,82,0.00,,---,0.01,VWS V14.00,2013-09-18 00:45:00,
2013-09-17 19:49:00,62.3,56.7,30.00,SSE,160,0.0,0.0,82,0.00,,---,0.01,VWS V14.00,2013-09-18 00:49:00,
2013-09-17 19:50:00,62.3,56.7,30.00,SSE,160,0.0,0.0,82,0.00,,---,0.01,VWS V14.00,2013-09-18 00:50:00,
2013-09-17 19:54:00,62.3,56.7,30.00,SSE,161,0.0,0.0,82,0.00,,---,0.01,VWS V14.00,2013-09-18 00:54:00,
2013-09-17 19:55:00,62.3,56.7,30.00,SSE,160,0.0,0.0,82,0.00,,---,0.01,VWS V14.00,2013-09-18 00:55:00,
2013-09-17 19:59:00,62.3,57.1,30.00,SSE,161,0.0,0.0,83,0.00,,---,0.01,VWS V14.00,2013-09-18 00:59:00,
2013-09-17 20:00:00,62.3,57.1,30.00,SSE,161,0.0,0.0,83,0.00,,---,0.01,VWS V14.00,2013-09-18 01:00:00,
2013-09-17 20:04:00,62.2,57.0,30.00,SSE,161,0.0,1.0,83,0.00,,---,0.01,VWS V14.00,2013-09-18 01:04:00,
2013-09-17 20:05:00,62.2,57.0,30.00,SSE,160,0.0,1.0,83,0.00,,---,0.01,VWS V14.00,2013-09-18 01:05:00,
2013-09-17 20:09:00,62.2,57.0,30.00,SSE,161,0.0,1.0,83,0.00,,---,0.01,VWS V14.00,2013-09-18 01:09:00,
2013-09-17 20:10:00,62.2,57.0,30.00,SSE,160,0.0,1.0,83,0.00,,---,0.01,VWS V14.00,2013-09-18 01:10:00,
2013-09-17 20:14:00,62.2,57.0,30.00,SSE,160,0.0,2.0,83,0.00,,---,0.01,VWS V14.00,2013-09-18 01:14:00,
2013-09-17 20:15:00,62.2,57.0,30.00,SSE,161,0.0,2.0,83,0.00,,---,0.01,VWS V14.00,2013-09-18 01:15:00,
2013-09-17 20:19:00,62.2,57.3,30.00,SSE,161,0.0,1.0,84,0.00,,---,0.01,VWS V14.00,2013-09-18 01:19:00,
2013-09-17 20:20:00,62.2,57.3,30.00,SSE,161,0.0,1.0,84,0.00,,---,0.01,VWS V14.00,2013-09-18 01:20:00,
2013-09-17 20:24:00,62.1,57.2,30.00,SSE,161,0.0,1.0,84,0.00,,---,0.01,VWS V14.00,2013-09-18 01:24:00,
2013-09-17 20:25:00,62.1,57.2,30.00,SSE,160,0.0,1.0,84,0.00,,---,0.01,VWS V14.00,2013-09-18 01:25:00,
2013-09-17 20:29:00,62.0,57.1,30.00,SSE,161,0.0,1.0,84,0.00,,---,0.01,VWS V14.00,2013-09-18 01:29:00,
2013-09-17 20:30:00,62.1,57.2,30.00,SSE,160,0.0,1.0,84,0.00,,---,0.01,VWS V14.00,2013-09-18 01:30:00,
2013-09-17 20:34:00,62.0,57.1,29.99,SSE,160,0.0,1.0,84,0.00,,---,0.01,VWS V14.00,2013-09-18 01:34:00,
2013-09-17 20:35:00,62.1,57.2,29.99,SSE,149,2.0,4.0,84,0.00,,---,0.01,VWS V14.00,2013-09-18 01:35:00,
2013-09-17 20:39:00,62.3,56.7,30.00,SE,138,4.0,7.0,82,0.00,,---,0.01,VWS V14.00,2013-09-18 01:39:00,
2013-09-17 20:40:00,62.4,56.8,30.00,SE,146,3.0,7.0,82,0.00,,---,0.01,VWS V14.00,2013-09-18 01:40:00,
2013-09-17 20:44:00,62.6,56.7,29.99,SE,140,9.0,13.0,81,0.00,,---,0.01,VWS V14.00,2013-09-18 01:44:00,
2013-09-17 20:45:00,62.6,56.7,29.99,SE,135,4.0,13.0,81,0.00,,---,0.01,VWS V14.00,2013-09-18 01:45:00,
2013-09-17 20:49:00,62.7,56.8,29.99,SSE,147,9.0,9.0,81,0.00,,---,0.01,VWS V14.00,2013-09-18 01:49:00,
2013-09-17 20:50:00,62.7,56.8,29.99,SSE,150,8.0,9.0,81,0.00,,---,0.01,VWS V14.00,2013-09-18 01:50:00,
2013-09-17 20:54:00,62.6,56.7,29.99,SSE,156,4.0,9.0,81,0.00,,---,0.01,VWS V14.00,2013-09-18 01:54:00,
2013-09-17 20:55:00,62.7,56.8,29.99,SSE,160,3.0,9.0,81,0.00,,---,0.01,VWS V14.00,2013-09-18 01:55:00,
2013-09-17 20:59:00,62.5,56.9,29.99,SE,145,2.0,5.0,82,0.00,,---,0.01,VWS V14.00,2013-09-18 01:59:00,
2013-09-17 21:00:00,62.5,56.9,29.99,SE,146,2.0,5.0,82,0.00,,---,0.01,VWS V14.00,2013-09-18 02:00:00,
2013-09-17 21:04:00,62.4,56.8,29.99,SE,146,1.0,5.0,82,0.00,,---,0.01,VWS V14.00,2013-09-18 02:04:00,
2013-09-17 21:05:00,62.4,56.8,29.99,SE,145,2.0,5.0,82,0.00,,---,0.01,VWS V14.00,2013-09-18 02:05:00,
2013-09-17 21:09:00,62.3,57.1,29.99,SSE,148,0.0,4.0,83,0.00,,---,0.01,VWS V14.00,2013-09-18 02:09:00,
2013-09-17 21:10:00,62.3,57.1,29.99,SSE,148,0.0,4.0,83,0.00,,---,0.01,VWS V14.00,2013-09-18 02:10:00,
2013-09-17 21:14:00,62.2,57.0,29.99,SE,138,2.0,5.0,83,0.00,,---,0.01,VWS V14.00,2013-09-18 02:14:00,
2013-09-17 21:15:00,62.2,57.0,29.99,SSE,148,6.0,6.0,83,0.00,,---,0.01,VWS V14.00,2013-09-18 02:15:00,
2013-09-17 21:19:00,62.2,57.0,29.98,ESE,117,2.0,7.0,83,0.00,,---,0.01,VWS V14.00,2013-09-18 02:19:00,
2013-09-17 21:20:00,62.2,57.0,29.98,SE,134,1.0,7.0,83,0.00,,---,0.01,VWS V14.00,2013-09-18 02:20:00,
2013-09-17 21:24:00,62.2,57.0,29.98,South,169,1.0,5.0,83,0.00,,---,0.01,VWS V14.00,2013-09-18 02:24:00,
2013-09-17 21:25:00,62.2,57.0,29.98,ESE,117,4.0,5.0,83,0.00,,---,0.01,VWS V14.00,2013-09-18 02:25:00,
2013-09-17 21:29:00,62.1,56.9,29.98,SE,129,0.0,6.0,83,0.00,,---,0.01,VWS V14.00,2013-09-18 02:29:00,
2013-09-17 21:30:00,62.1,56.9,29.98,SE,129,0.0,6.0,83,0.00,,---,0.01,VWS V14.00,2013-09-18 02:30:00,
2013-09-17 21:34:00,62.0,56.8,29.98,ESE,116,0.0,4.0,83,0.00,,---,0.01,VWS V14.00,2013-09-18 02:34:00,
2013-09-17 21:35:00,62.0,56.8,29.98,ESE,117,0.0,4.0,83,0.00,,---,0.01,VWS V14.00,2013-09-18 02:35:00,
2013-09-17 21:39:00,62.0,56.8,29.98,ESE,117,1.0,5.0,83,0.00,,---,0.01,VWS V14.00,2013-09-18 02:39:00,
2013-09-17 21:40:00,62.0,56.8,29.98,ESE,117,0.0,5.0,83,0.00,,---,0.01,VWS V14.00,2013-09-18 02:40:00,
2013-09-17 21:44:00,62.0,56.8,29.98,ESE,113,3.0,7.0,83,0.00,,---,0.01,VWS V14.00,2013-09-18 02:44:00,
2013-09-17 21:45:00,62.0,56.8,29.98,ESE,109,3.0,7.0,83,0.00,,---,0.01,VWS V14.00,2013-09-18 02:45:00,
2013-09-17 21:49:00,62.0,56.8,29.98,SSE,149,3.0,7.0,83,0.00,,---,0.01,VWS V14.00,2013-09-18 02:49:00,
2013-09-17 21:50:00,62.0,56.8,29.98,SSE,149,2.0,7.0,83,0.00,,---,0.01,VWS V14.00,2013-09-18 02:50:00,
2013-09-17 21:54:00,62.0,56.8,29.98,ESE,109,4.0,5.0,83,0.00,,---,0.01,VWS V14.00,2013-09-18 02:54:00,
2013-09-17 21:55:00,62.0,56.8,29.98,ESE,109,3.0,5.0,83,0.00,,---,0.01,VWS V14.00,2013-09-18 02:55:00,
2013-09-17 21:59:00,62.0,56.8,29.98,SSE,159,2.0,5.0,83,0.00,,---,0.01,VWS V14.00,2013-09-18 02:59:00,
2013-09-17 22:00:00,62.0,56.8,29.98,SSE,157,3.0,5.0,83,0.00,,---,0.01,VWS V14.00,2013-09-18 03:00:00,
2013-09-17 22:04:00,61.9,56.7,29.98,SE,145,0.0,5.0,83,0.00,,---,0.01,VWS V14.00,2013-09-18 03:04:00,
2013-09-17 22:05:00,61.9,56.7,29.98,SE,145,2.0,5.0,83,0.00,,---,0.01,VWS V14.00,2013-09-18 03:05:00,
2013-09-17 22:09:00,61.9,56.7,29.97,ESE,121,2.0,7.0,83,0.00,,---,0.01,VWS V14.00,2013-09-18 03:09:00,
2013-09-17 22:10:00,61.9,56.7,29.97,ESE,121,2.0,7.0,83,0.00,,---,0.01,VWS V14.00,2013-09-18 03:10:00,
2013-09-17 22:14:00,61.9,56.7,29.97,SSE,157,4.0,7.0,83,0.00,,---,0.01,VWS V14.00,2013-09-18 03:14:00,
2013-09-17 22:15:00,61.9,56.7,29.97,SE,126,4.0,7.0,83,0.00,,---,0.01,VWS V14.00,2013-09-18 03:15:00,
2013-09-17 22:19:00,61.9,56.7,29.97,SE,130,2.0,4.0,83,0.00,,---,0.01,VWS V14.00,2013-09-18 03:19:00,
2013-09-17 22:20:00,61.9,56.7,29.97,SE,130,2.0,4.0,83,0.00,,---,0.01,VWS V14.00,2013-09-18 03:20:00,
2013-09-17 22:24:00,62.0,56.8,29.97,SSE,154,0.0,7.0,83,0.00,,---,0.01,VWS V14.00,2013-09-18 03:24:00,
2013-09-17 22:25:00,62.0,56.8,29.97,SSE,154,0.0,7.0,83,0.00,,---,0.01,VWS V14.00,2013-09-18 03:25:00,
2013-09-17 22:29:00,61.9,56.7,29.97,ESE,123,3.0,7.0,83,0.00,,---,0.01,VWS V14.00,2013-09-18 03:29:00,
2013-09-17 22:30:00,61.9,56.7,29.97,SE,129,3.0,7.0,83,0.00,,---,0.01,VWS V14.00,2013-09-18 03:30:00,
2013-09-17 22:34:00,62.0,56.8,29.97,SE,143,3.0,7.0,83,0.00,,---,0.01,VWS V14.00,2013-09-18 03:34:00,
2013-09-17 22:35:00,62.0,56.8,29.97,SE,136,4.0,7.0,83,0.00,,---,0.01,VWS V14.00,2013-09-18 03:35:00,
2013-09-17 22:39:00,61.9,56.7,29.97,SE,145,2.0,8.0,83,0.00,,---,0.01,VWS V14.00,2013-09-18 03:39:00,
2013-09-17 22:40:00,61.9,56.7,29.97,SE,145,2.0,8.0,83,0.00,,---,0.01,VWS V14.00,2013-09-18 03:40:00,
2013-09-17 22:44:00,61.8,56.6,29.97,SSE,152,5.0,7.0,83,0.00,,---,0.01,VWS V14.00,2013-09-18 03:44:00,
2013-09-17 22:45:00,61.8,56.6,29.97,SSE,152,5.0,7.0,83,0.00,,---,0.01,VWS V14.00,2013-09-18 03:45:00,
2013-09-17 22:49:00,61.6,56.4,29.97,SSE,150,3.0,6.0,83,0.00,,---,0.01,VWS V14.00,2013-09-18 03:49:00,
2013-09-17 22:50:00,61.6,56.4,29.97,SSE,150,3.0,6.0,83,0.00,,---,0.01,VWS V14.00,2013-09-18 03:50:00,
2013-09-17 22:54:00,61.5,56.6,29.96,SE,145,4.0,6.0,84,0.00,,---,0.01,VWS V14.00,2013-09-18 03:54:00,
2013-09-17 22:55:00,61.5,56.6,29.96,SE,145,4.0,6.0,84,0.00,,---,0.01,VWS V14.00,2013-09-18 03:55:00,
2013-09-17 22:59:00,61.4,56.5,29.96,SSE,149,0.0,6.0,84,0.00,,---,0.01,VWS V14.00,2013-09-18 03:59:00,
2013-09-17 23:00:00,61.4,56.5,29.96,SSE,149,0.0,6.0,84,0.00,,---,0.01,VWS V14.00,2013-09-18 04:00:00,
2013-09-17 23:01:00,61.4,56.5,29.96,SE,124,0.0,7.0,84,0.00,,---,0.01,VWS V14.00,2013-09-18 04:01:00,
2013-09-17 23:05:00,61.4,56.5,29.96,ESE,118,0.0,7.0,84,0.00,,---,0.01,VWS V14.00,2013-09-18 04:05:00,
2013-09-17 23:06:00,61.4,56.5,29.96,SE,138,4.0,6.0,84,0.00,,---,0.01,VWS V14.00,2013-09-18 04:06:00,
2013-09-17 23:10:00,61.4,56.5,29.96,SSE,147,0.0,6.0,84,0.00,,---,0.01,VWS V14.00,2013-09-18 04:10:00,
2013-09-17 23:11:00,61.3,56.4,29.96,East,84,1.0,4.0,84,0.00,,---,0.01,VWS V14.00,2013-09-18 04:11:00,
2013-09-17 23:15:00,61.3,56.4,29.96,ESE,114,0.0,4.0,84,0.00,,---,0.01,VWS V14.00,2013-09-18 04:15:00,
2013-09-17 23:16:00,61.3,56.8,29.96,ESE,114,2.0,3.0,85,0.00,,---,0.01,VWS V14.00,2013-09-18 04:16:00,
2013-09-17 23:20:00,61.2,56.7,29.96,ESE,119,2.0,3.0,85,0.00,,---,0.01,VWS V14.00,2013-09-18 04:20:00,
2013-09-17 23:21:00,61.2,56.7,29.96,SE,140,2.0,3.0,85,0.00,,---,0.01,VWS V14.00,2013-09-18 04:21:00,
2013-09-17 23:25:00,61.2,56.7,29.96,SSE,159,0.0,4.0,85,0.00,,---,0.01,VWS V14.00,2013-09-18 04:25:00,
2013-09-17 23:26:00,61.1,56.6,29.96,ESE,123,4.0,4.0,85,0.00,,---,0.01,VWS V14.00,2013-09-18 04:26:00,
2013-09-17 23:30:00,61.1,56.6,29.96,SSE,150,0.0,5.0,85,0.00,,---,0.01,VWS V14.00,2013-09-18 04:30:00,
2013-09-17 23:32:00,61.1,56.6,29.96,SSE,150,1.0,3.0,85,0.00,,---,0.01,VWS V14.00,2013-09-18 04:32:00,
2013-09-17 23:35:00,61.1,56.6,29.96,SSE,157,0.0,4.0,85,0.00,,---,0.01,VWS V14.00,2013-09-18 04:35:00,
2013-09-17 23:37:00,61.1,56.6,29.95,SSE,147,6.0,6.0,85,0.00,,---,0.01,VWS V14.00,2013-09-18 04:37:00,
2013-09-17 23:40:00,61.1,56.6,29.95,South,170,4.0,6.0,85,0.00,,---,0.01,VWS V14.00,2013-09-18 04:40:00,
2013-09-17 23:42:00,61.1,56.6,29.95,SSE,154,1.0,5.0,85,0.00,,---,0.01,VWS V14.00,2013-09-18 04:42:00,
2013-09-17 23:45:00,61.1,56.6,29.95,SSE,153,0.0,5.0,85,0.00,,---,0.01,VWS V14.00,2013-09-18 04:45:00,
2013-09-17 23:47:00,61.1,56.6,29.95,SE,134,0.0,3.0,85,0.00,,---,0.01,VWS V14.00,2013-09-18 04:47:00,
2013-09-17 23:50:00,61.0,56.5,29.95,SE,133,0.0,3.0,85,0.00,,---,0.01,VWS V14.00,2013-09-18 04:50:00,
2013-09-17 23:52:00,61.1,56.6,29.95,SE,134,0.0,3.0,85,0.00,,---,0.01,VWS V14.00,2013-09-18 04:52:00,
2013-09-17 23:55:00,61.1,56.6,29.95,SSE,156,0.0,5.0,85,0.00,,---,0.01,VWS V14.00,2013-09-18 04:55:00,
2013-09-17 23:57:00,61.2,56.7,29.95,SSE,156,1.0,4.0,85,0.00,,---,0.01,VWS V14.00,2013-09-18 04:57:00,